Choppington, United Kingdom
Current Conditions -  °F | °C
As of 3:20 AM on Monday 22 Dec 2014 (Local Time) from EGNT Reporting Station
Light Rain Light Rain  
Wind Chill: 54°   Ceiling: Unl
Heat Index: 54°   Visibility: 6mi
Dew Point: 48°   Wind: 31mph
Humidity: 82%   Direction: 250°WSW
Pressure: 29.56"   Gusts: 48mph
Location:  55.16°N, 1.6°W
Report Text: EGNT 220320Z 25027G42KT 9999 -RA SCT018 12/09 Q1001
Loading
Personal Weather Stations






























Interactive Weather Map New forecast layout! Learn more

10-Day Weather Forecast

Advertisements
Track Severe Weather on mobile